Aérodrome :
LOGIN :

S'inscrire | Disclaimer

   EN    FR    IT 

 










Légende :    VFR   VFR Marginal   IFR   IFR Intensif   IFR Très Intensif
Visi : 
Plafond : 
>= 8 km
>= 3000ft
5 à 8 km
1000 à 3000 ft
1500m à 5 km
500 à 1000 ft
800 à 1500m
200 à 500 ft
< 800m
< 200 ft
Symboles :   Orages  Brouillard  Fortes neiges  Fortes précipitations  Vent > 20 kt
SIGMETs :   Divers  Orages  Givrage  Turbulence  Onde Orograph.  Cendres Volcan.







- Altitude de l'aérodrome : 325 ft
- Code IATA : BES
- Voir les cartes d'approche


LFRB - Brest

DERNIER METAR :
  • 161930Z AUTO 26004KT 9999 FEW032 05/03 Q1010 TEMPO 4000 SHRA FEW013CB BKN015TCU

METARs EXPIRÉS :
  • 161900Z AUTO 27005KT 9999 FEW025 06/04 Q1009 TEMPO 4000 SHRA FEW013CB BKN015TCU
  • 161830Z AUTO 30005KT 270V330 9999 FEW021/// SCT047/// BKN070/// ///TCU 07/05 Q1009 TEMPO 4000 SHRA FEW013CB BKN015TCU
  • 161800Z AUTO 29007KT 9999 FEW016/// SCT028/// BKN048/// ///TCU 08/05 Q1009 TEMPO 4000 SHRA FEW013CB BKN015TCU
  • 161730Z AUTO 28006KT 9999 FEW025 SCT039 BKN048 08/05 Q1009 TEMPO 4000 SHRA FEW013CB BKN015TCU
  • 161700Z AUTO 29006KT 260V320 9999 FEW036 BKN042 BKN074 08/06 Q1009 TEMPO 4000 SHRA BKN015TCU

TAF AMD TAF LFRB
Valide du 16 à 18h jusqu'au 18 à 00h UTC


161708Z 1618/1724 28012KT 9999 SCT018 SCT035
TEMPO 1618/1715 4000 SHRA FEW013CB BKN015TCU
PROB40
TEMPO 1623/1703 3000 SHRAGS SCT013CB
BECMG 1700/1702 31015KT
BECMG 1712/1714 01012KT
ATIS : +33 2 98 32 02 71
Pas de NOTAMs connus pour ce terrain.



MET'MAP, la Météo Aéronautique d'un coup d'oeil ! - Copyright ORBIFLY Décembre 2007 - Disclaimer

ORBIFLY MET'MAP TEAM :

Programmation & Développement : Alexandra Zaïnal
Conception & Développement : Baudouin d'Aumeries
Co-Programmation & Développement : Marc-Olivier Méhu
Soutien technique & logistique : Manuel Goepfert

Contact : metmap@orbifly.com




SOURCES & CREDITS :

   NOAA